Terminal Aerodrome Forecast
Issued by NWS

Home | Current Version | Previous Version | Text Only | Print | Product List | Glossary On
Versions: 1 2 3 4 5 6 7 8 9 10 11 12 13 14 15 16 17 18 19 20 21 22 23 24 25 26 27 28
000
FTUS43 KLOT 041720
TAFDPA
TAF
KDPA 041720Z 0418/0518 16008KT 1/2SM SN OVC004
      TEMPO 0418/0422 1/4SM +SN OVC004
     FM042200 19005KT 1 1/2SM -SN BR OVC005
     FM050000 25007KT 5SM -SNDZ BR OVC006
     FM050200 24008KT P6SM OVC008
     FM051500 19010KT P6SM BKN008=

USA.gov is the U.S. government's official web portal to all federal, state and local government web resources and services.